Time;durP1;ratioP1;P1;durP2;ratioP2;P2;SDS_P1;SDS_P2;PMS_P1;PMS_P2;Temp;Humidity;BMP_temperature;BMP_pressure;BME280_temperature;BME280_humidity;BME280_pressure;Samples;Min_cycle;Max_cycle;Signal;HPM_P1;HPM_P2
2023/12/07 00:01:07;;;;;;;22.55;17.38;;;2.80;99.90;;;;;;5060462;28;20213;-64
2023/12/07 00:03:34;;;;;;;23.83;16.90;;;2.90;99.90;;;;;;5059381;28;20216;-64
2023/12/07 00:06:00;;;;;;;21.50;15.05;;;2.90;99.90;;;;;;5061662;28;20210;-64
2023/12/07 00:08:27;;;;;;;21.77;16.67;;;2.90;99.90;;;;;;5061335;28;20201;-64
2023/12/07 00:10:54;;;;;;;24.90;18.23;;;2.90;99.90;;;;;;5059386;28;20209;-64
2023/12/07 00:13:22;;;;;;;23.73;18.02;;;2.90;99.90;;;;;;5060086;28;20233;-64
2023/12/07 00:15:49;;;;;;;23.40;17.20;;;2.90;99.90;;;;;;5059607;28;20206;-64
2023/12/07 00:18:15;;;;;;;24.05;17.25;;;2.90;99.90;;;;;;5059248;28;20225;-64
2023/12/07 00:20:42;;;;;;;23.75;17.35;;;2.90;99.90;;;;;;5060125;28;20785;-64
2023/12/07 00:23:09;;;;;;;23.90;17.75;;;2.90;99.90;;;;;;5059632;28;20233;-63
2023/12/07 00:25:35;;;;;;;19.40;16.92;;;2.90;99.90;;;;;;5059838;28;20202;-64
2023/12/07 00:28:03;;;;;;;26.00;18.25;;;2.90;99.90;;;;;;5062494;28;20671;-64
2023/12/07 00:30:31;;;;;;;19.98;15.73;;;2.90;99.90;;;;;;5064726;28;20216;-65
2023/12/07 00:32:59;;;;;;;25.05;17.73;;;2.90;99.90;;;;;;5062727;28;20226;-64
2023/12/07 00:35:28;;;;;;;22.65;17.92;;;2.80;99.90;;;;;;5062684;28;20212;-64
2023/12/07 00:37:55;;;;;;;23.67;16.65;;;2.90;99.90;;;;;;5068051;28;20224;-64
2023/12/07 00:40:22;;;;;;;24.48;17.58;;;2.80;99.90;;;;;;5068476;28;20201;-61
2023/12/07 00:42:49;;;;;;;21.52;16.83;;;2.90;99.90;;;;;;5065548;28;20222;-65
2023/12/07 00:45:16;;;;;;;26.23;17.65;;;2.90;99.90;;;;;;5063329;28;20232;-64
2023/12/07 00:47:44;;;;;;;21.60;16.23;;;2.90;99.90;;;;;;5064338;28;20198;-64
2023/12/07 00:50:13;;;;;;;21.73;16.08;;;2.90;99.90;;;;;;5062753;28;20209;-63
2023/12/07 00:52:40;;;;;;;22.27;16.25;;;2.90;99.90;;;;;;5065109;28;20226;-64
2023/12/07 00:55:07;;;;;;;28.08;16.80;;;2.90;99.90;;;;;;5064501;28;20204;-64
2023/12/07 00:57:34;;;;;;;26.30;18.73;;;2.90;99.90;;;;;;5064384;28;20214;-63
2023/12/07 01:00:01;;;;;;;26.65;18.50;;;2.90;99.90;;;;;;5064943;28;20202;-65
2023/12/07 01:02:27;;;;;;;20.92;16.70;;;2.90;99.90;;;;;;5064063;28;20251;-63
2023/12/07 01:04:55;;;;;;;27.60;19.73;;;2.90;99.90;;;;;;5063180;28;20206;-64
2023/12/07 01:07:22;;;;;;;25.02;18.13;;;3.00;99.90;;;;;;5062562;28;20212;-64
2023/12/07 01:09:49;;;;;;;22.95;17.35;;;3.00;99.90;;;;;;5067921;28;20228;-64
2023/12/07 01:12:16;;;;;;;23.27;17.60;;;3.00;99.90;;;;;;5071499;28;20317;-64
2023/12/07 01:14:43;;;;;;;25.58;18.10;;;3.00;99.90;;;;;;5062828;28;20298;-64
2023/12/07 01:17:09;;;;;;;24.48;16.80;;;3.00;99.90;;;;;;5060541;28;20206;-63
2023/12/07 01:19:36;;;;;;;24.42;17.20;;;3.00;99.90;;;;;;5059284;28;20205;-63
2023/12/07 01:22:04;;;;;;;23.90;16.75;;;3.00;99.90;;;;;;5059242;28;20237;-63
2023/12/07 01:24:31;;;;;;;28.35;18.42;;;3.00;99.90;;;;;;5057952;28;20201;-64
2023/12/07 01:26:58;;;;;;;27.25;19.92;;;3.00;99.90;;;;;;5060685;28;20212;-63
2023/12/07 01:29:25;;;;;;;27.80;17.75;;;3.00;99.90;;;;;;5065763;28;20274;-63
2023/12/07 01:31:52;;;;;;;28.35;18.70;;;3.00;99.90;;;;;;5068086;28;20224;-64
2023/12/07 01:34:19;;;;;;;26.42;18.52;;;3.00;99.90;;;;;;5064507;28;20198;-63
2023/12/07 01:36:46;;;;;;;28.77;17.73;;;3.00;99.90;;;;;;5060972;28;20291;-63
2023/12/07 01:39:14;;;;;;;24.20;16.85;;;3.00;99.90;;;;;;5060319;28;20226;-63
2023/12/07 01:41:41;;;;;;;25.08;19.00;;;3.00;99.90;;;;;;5064185;28;20222;-61
2023/12/07 01:44:08;;;;;;;22.65;18.23;;;3.00;99.90;;;;;;5062785;28;20206;-62
2023/12/07 01:46:35;;;;;;;26.00;18.17;;;3.10;99.90;;;;;;5063588;28;20216;-63
2023/12/07 01:49:02;;;;;;;23.65;16.95;;;3.10;99.90;;;;;;5062719;28;20197;-63
2023/12/07 01:51:29;;;;;;;25.75;18.92;;;3.10;99.90;;;;;;5066458;28;20588;-62
2023/12/07 01:53:56;;;;;;;23.40;16.55;;;3.10;99.90;;;;;;5068869;28;20201;-63
2023/12/07 01:56:26;;;;;;;22.50;17.70;;;3.10;99.90;;;;;;5068511;28;20208;-63
2023/12/07 01:58:53;;;;;;;28.33;20.02;;;3.10;99.90;;;;;;5069347;28;20210;-62
2023/12/07 02:01:20;;;;;;;27.02;19.08;;;3.10;99.90;;;;;;5069990;28;20573;-63
2023/12/07 02:03:47;;;;;;;24.95;16.67;;;3.10;99.90;;;;;;5067722;28;20190;-64
2023/12/07 02:06:14;;;;;;;23.27;16.00;;;3.10;99.90;;;;;;5067984;28;20206;-63
2023/12/07 02:08:42;;;;;;;23.90;18.35;;;3.10;99.90;;;;;;5065264;28;20198;-62
2023/12/07 02:11:09;;;;;;;25.50;16.77;;;3.10;99.90;;;;;;5062444;28;20201;-63
2023/12/07 02:13:38;;;;;;;23.08;16.17;;;3.10;99.90;;;;;;5057547;28;20205;-64
2023/12/07 02:16:14;;;;;;;24.77;17.40;;;3.10;99.90;;;;;;5058733;28;20205;-63
2023/12/07 02:18:46;;;;;;;26.08;17.77;;;3.10;99.90;;;;;;5056477;28;20212;-63
2023/12/07 02:21:17;;;;;;;22.27;16.73;;;3.10;99.90;;;;;;5055945;28;20487;-64
2023/12/07 02:23:47;;;;;;;25.02;16.42;;;3.10;99.90;;;;;;5055619;28;20559;-63
2023/12/07 02:26:19;;;;;;;22.52;16.73;;;3.10;99.90;;;;;;5057574;28;20210;-63
2023/12/07 02:28:47;;;;;;;23.98;16.70;;;3.10;99.90;;;;;;5065094;28;20178;-63
2023/12/07 02:31:14;;;;;;;24.45;17.77;;;3.10;99.90;;;;;;5070680;28;20694;-64
2023/12/07 02:33:41;;;;;;;22.45;17.27;;;3.10;99.90;;;;;;5070834;28;20202;-64
2023/12/07 02:36:08;;;;;;;23.48;16.50;;;3.10;99.90;;;;;;5070420;28;20202;-62
2023/12/07 02:38:36;;;;;;;23.05;17.30;;;3.20;99.90;;;;;;5071091;28;20221;-64
2023/12/07 02:41:04;;;;;;;21.73;17.40;;;3.10;99.90;;;;;;5070094;28;20206;-64
2023/12/07 02:43:30;;;;;;;20.17;15.27;;;3.10;99.90;;;;;;5070798;28;20198;-63
2023/12/07 02:45:59;;;;;;;23.98;17.27;;;3.10;99.90;;;;;;5065038;28;20205;-63
2023/12/07 02:48:26;;;;;;;23.85;17.08;;;3.10;99.90;;;;;;5064500;28;20297;-64
2023/12/07 02:50:53;;;;;;;20.88;16.63;;;3.10;99.90;;;;;;5070272;28;20204;-64
2023/12/07 02:53:19;;;;;;;24.50;17.30;;;3.10;99.90;;;;;;5068173;28;20234;-63
2023/12/07 02:55:46;;;;;;;23.38;16.35;;;3.20;99.90;;;;;;5063233;28;20209;-62
2023/12/07 02:58:13;;;;;;;21.00;15.27;;;3.10;99.90;;;;;;5062464;28;20228;-63
2023/12/07 03:00:40;;;;;;;21.52;15.48;;;3.20;99.90;;;;;;5062232;28;20632;-63
2023/12/07 03:03:08;;;;;;;21.42;17.15;;;3.10;99.90;;;;;;5060740;28;20307;-62
2023/12/07 03:05:34;;;;;;;21.25;15.30;;;3.10;99.90;;;;;;5055575;28;20225;-65
2023/12/07 03:08:01;;;;;;;21.85;16.23;;;3.20;99.90;;;;;;5059290;28;20198;-63
2023/12/07 03:10:28;;;;;;;21.40;15.18;;;3.20;99.90;;;;;;5059606;28;20675;-64
2023/12/07 03:12:55;;;;;;;23.77;15.20;;;3.20;99.90;;;;;;5058595;28;20226;-63
2023/12/07 03:15:21;;;;;;;22.55;15.55;;;3.20;99.90;;;;;;5058720;28;20202;-64
2023/12/07 03:17:50;;;;;;;20.13;15.90;;;3.20;99.90;;;;;;5059533;28;20229;-64
2023/12/07 03:20:18;;;;;;;25.05;16.52;;;3.20;99.90;;;;;;5058915;28;20255;-64
2023/12/07 03:22:45;;;;;;;19.83;14.30;;;3.20;99.90;;;;;;5059765;28;20232;-63
2023/12/07 03:25:11;;;;;;;23.30;16.33;;;3.20;99.90;;;;;;5060597;28;20206;-64
2023/12/07 03:27:38;;;;;;;20.95;16.02;;;3.10;99.90;;;;;;5059093;28;20221;-64
2023/12/07 03:30:06;;;;;;;19.50;14.80;;;3.20;99.90;;;;;;5060839;28;20201;-64
2023/12/07 03:32:33;;;;;;;26.23;16.15;;;3.20;99.90;;;;;;5059330;28;20232;-63
2023/12/07 03:35:00;;;;;;;20.73;15.93;;;3.20;99.90;;;;;;5062993;28;20202;-64
2023/12/07 03:37:28;;;;;;;20.05;16.38;;;3.20;99.90;;;;;;5061832;28;20581;-63
2023/12/07 03:39:55;;;;;;;26.55;16.40;;;3.20;99.90;;;;;;5061047;28;20224;-65
2023/12/07 03:42:21;;;;;;;19.40;15.50;;;3.20;99.90;;;;;;5062628;28;20236;-64
2023/12/07 03:44:48;;;;;;;20.65;15.23;;;3.20;99.90;;;;;;5062936;28;20202;-63
2023/12/07 03:47:15;;;;;;;18.15;14.82;;;3.20;99.90;;;;;;5063190;28;20201;-64
2023/12/07 03:49:42;;;;;;;19.95;15.20;;;3.10;99.90;;;;;;5061663;28;20202;-63
2023/12/07 03:52:08;;;;;;;18.65;13.57;;;3.20;99.90;;;;;;5060781;28;20222;-63
2023/12/07 03:54:37;;;;;;;17.50;14.60;;;3.10;99.90;;;;;;5060875;28;20205;-63
2023/12/07 03:57:04;;;;;;;21.15;15.95;;;3.20;99.90;;;;;;5061128;28;20682;-63
2023/12/07 03:59:31;;;;;;;21.35;15.93;;;3.10;99.90;;;;;;5059739;28;20217;-63
2023/12/07 04:01:58;;;;;;;19.13;15.35;;;3.20;99.90;;;;;;5054929;28;20236;-64
2023/12/07 04:04:24;;;;;;;22.10;16.20;;;3.20;99.90;;;;;;5059322;28;20205;-63
2023/12/07 04:06:51;;;;;;;19.65;14.77;;;3.10;99.90;;;;;;5059702;28;20261;-63
2023/12/07 04:12:41;;;;;;;19.13;14.90;;;3.10;99.90;;;;;;5096821;27;20620;-64
2023/12/07 04:15:09;;;;;;;19.88;14.20;;;3.10;99.90;;;;;;5096910;28;20207;-64
2023/12/07 04:17:36;;;;;;;19.02;15.77;;;3.10;99.90;;;;;;5097672;28;20204;-64
2023/12/07 04:20:02;;;;;;;19.27;14.50;;;3.10;99.90;;;;;;5095944;28;20200;-63
2023/12/07 04:22:29;;;;;;;20.40;15.02;;;3.10;99.90;;;;;;5095348;28;20222;-64
2023/12/07 04:24:56;;;;;;;20.52;15.05;;;3.10;99.90;;;;;;5095791;28;20253;-63
2023/12/07 04:27:23;;;;;;;21.08;14.98;;;3.10;99.90;;;;;;5095072;28;20204;-63
2023/12/07 04:29:51;;;;;;;21.70;14.68;;;3.20;99.90;;;;;;5093876;28;20196;-63
2023/12/07 04:32:17;;;;;;;23.80;16.00;;;3.20;99.90;;;;;;5091294;28;20228;-64
2023/12/07 04:34:43;;;;;;;19.60;14.77;;;3.20;99.90;;;;;;5095594;28;20222;-64
2023/12/07 04:37:10;;;;;;;17.75;14.70;;;3.20;99.90;;;;;;5097662;28;20212;-65
2023/12/07 04:39:37;;;;;;;18.20;14.70;;;3.20;99.90;;;;;;5097955;28;20291;-64
2023/12/07 04:42:04;;;;;;;16.65;13.57;;;3.20;99.90;;;;;;5097572;28;20571;-63
2023/12/07 04:44:31;;;;;;;20.48;14.73;;;3.20;99.90;;;;;;5097267;28;20220;-63
2023/12/07 04:46:59;;;;;;;21.00;15.80;;;3.20;99.90;;;;;;5097505;28;20205;-63
2023/12/07 04:49:26;;;;;;;21.13;14.73;;;3.20;99.90;;;;;;5095544;28;20205;-63
2023/12/07 04:51:52;;;;;;;18.75;14.27;;;3.20;99.90;;;;;;5105195;28;20224;-64
2023/12/07 04:54:19;;;;;;;16.55;13.65;;;3.20;99.90;;;;;;5106530;28;20655;-63
2023/12/07 04:56:46;;;;;;;19.55;14.13;;;3.20;99.90;;;;;;5091534;28;20681;-64
2023/12/07 04:59:13;;;;;;;18.60;14.90;;;3.30;99.90;;;;;;5091423;28;20201;-64
2023/12/07 05:01:40;;;;;;;17.42;13.48;;;3.30;99.90;;;;;;5091223;28;20227;-63
2023/12/07 05:04:08;;;;;;;16.35;13.02;;;3.30;99.90;;;;;;5093512;28;20204;-64
2023/12/07 05:06:36;;;;;;;22.38;13.57;;;3.30;99.90;;;;;;5101516;28;20204;-64
2023/12/07 05:09:03;;;;;;;20.83;15.25;;;3.30;99.90;;;;;;5099669;28;20196;-63
2023/12/07 05:11:30;;;;;;;18.95;15.27;;;3.30;99.90;;;;;;5092354;28;20315;-63
2023/12/07 05:13:57;;;;;;;18.42;13.07;;;3.30;99.90;;;;;;5092530;28;20207;-63
2023/12/07 05:16:24;;;;;;;16.90;14.45;;;3.30;99.90;;;;;;5092930;28;20689;-63
2023/12/07 05:18:50;;;;;;;18.58;13.50;;;3.30;99.90;;;;;;5093383;28;20205;-63
2023/12/07 05:21:18;;;;;;;16.65;13.48;;;3.30;99.90;;;;;;5092445;28;20196;-64
2023/12/07 05:23:45;;;;;;;19.33;14.15;;;3.30;99.90;;;;;;5079904;28;20704;-62
2023/12/07 05:26:12;;;;;;;21.38;14.95;;;3.30;99.90;;;;;;5080650;28;20201;-63
2023/12/07 05:28:39;;;;;;;18.65;13.70;;;3.30;99.90;;;;;;5079725;28;20204;-65
2023/12/07 05:31:06;;;;;;;20.52;14.65;;;3.30;99.90;;;;;;5082079;28;20272;-63
2023/12/07 05:33:34;;;;;;;19.63;13.63;;;3.30;99.90;;;;;;5079559;28;20277;-63
2023/12/07 05:36:00;;;;;;;20.92;14.43;;;3.40;99.90;;;;;;5079946;28;20280;-63
2023/12/07 05:38:28;;;;;;;18.80;15.30;;;3.30;99.90;;;;;;5079635;28;20205;-63
2023/12/07 05:40:55;;;;;;;20.45;14.48;;;3.30;99.90;;;;;;5079346;28;20205;-63
2023/12/07 05:43:22;;;;;;;18.80;14.25;;;3.40;99.90;;;;;;5080130;28;20222;-64
2023/12/07 05:45:49;;;;;;;18.38;13.63;;;3.40;99.90;;;;;;5081589;28;20300;-63
2023/12/07 05:48:15;;;;;;;20.15;14.90;;;3.40;99.90;;;;;;5080338;28;20205;-62
2023/12/07 05:50:42;;;;;;;19.80;13.63;;;3.40;99.90;;;;;;5084061;28;20211;-63
2023/12/07 05:53:10;;;;;;;17.40;13.75;;;3.40;99.90;;;;;;5080902;28;20251;-63
2023/12/07 05:55:39;;;;;;;19.65;15.00;;;3.40;99.90;;;;;;5081904;28;20295;-64
2023/12/07 05:58:06;;;;;;;17.92;15.30;;;3.40;99.90;;;;;;5084240;28;20201;-62
2023/12/07 06:00:33;;;;;;;23.83;14.40;;;3.40;99.90;;;;;;5079685;28;20613;-64
2023/12/07 06:02:59;;;;;;;17.48;12.70;;;3.40;99.90;;;;;;5078984;28;20229;-63
2023/12/07 06:05:26;;;;;;;17.73;13.60;;;3.40;99.90;;;;;;5079633;28;20197;-63
2023/12/07 06:07:54;;;;;;;16.15;12.98;;;3.40;99.90;;;;;;5080011;28;20231;-63
2023/12/07 06:10:20;;;;;;;15.40;12.45;;;3.40;99.90;;;;;;5079671;28;20207;-64
2023/12/07 06:12:48;;;;;;;18.15;13.75;;;3.40;99.90;;;;;;5076654;28;20691;-64
2023/12/07 06:15:15;;;;;;;18.45;13.40;;;3.40;99.90;;;;;;5076516;28;20209;-67
2023/12/07 06:17:42;;;;;;;17.27;13.45;;;3.40;99.90;;;;;;5076956;28;20212;-63
2023/12/07 06:20:10;;;;;;;17.35;13.05;;;3.40;99.90;;;;;;5076112;28;20689;-62
2023/12/07 06:22:37;;;;;;;18.27;14.18;;;3.50;99.90;;;;;;5076494;28;20224;-63
2023/12/07 06:25:04;;;;;;;19.60;15.63;;;3.50;99.90;;;;;;5078556;28;20197;-64
2023/12/07 06:27:30;;;;;;;20.15;13.80;;;3.50;99.90;;;;;;5081646;28;20205;-63
2023/12/07 06:29:59;;;;;;;18.42;13.48;;;3.50;99.90;;;;;;5085016;28;20211;-62
2023/12/07 06:32:26;;;;;;;17.33;13.48;;;3.50;99.90;;;;;;5084738;28;20228;-64
2023/12/07 06:34:53;;;;;;;16.20;13.45;;;3.50;99.90;;;;;;5082691;28;20201;-61
2023/12/07 06:37:20;;;;;;;16.92;12.40;;;3.50;99.90;;;;;;5080000;28;20206;-64
2023/12/07 06:39:48;;;;;;;16.60;12.15;;;3.50;99.90;;;;;;5082693;28;20226;-63
2023/12/07 06:42:15;;;;;;;18.80;13.13;;;3.50;99.90;;;;;;5083000;28;20254;-62
2023/12/07 06:44:44;;;;;;;19.08;13.10;;;3.50;99.90;;;;;;5082434;28;20205;-61
2023/12/07 06:47:12;;;;;;;21.70;13.55;;;3.50;99.90;;;;;;5080074;28;20207;-63
2023/12/07 06:49:39;;;;;;;17.50;12.00;;;3.50;99.90;;;;;;5079647;28;20665;-62
2023/12/07 06:52:06;;;;;;;21.38;14.07;;;3.50;99.90;;;;;;5083396;28;20235;-64
2023/12/07 06:54:32;;;;;;;16.58;12.18;;;3.50;99.90;;;;;;5081480;28;20197;-65
2023/12/07 06:56:59;;;;;;;23.10;14.52;;;3.50;99.90;;;;;;5078810;28;20197;-64
2023/12/07 06:59:26;;;;;;;18.98;14.25;;;3.50;99.90;;;;;;5078181;28;20289;-64
2023/12/07 07:01:52;;;;;;;18.65;12.93;;;3.50;99.90;;;;;;5077632;28;20245;-65
2023/12/07 07:04:20;;;;;;;18.17;12.30;;;3.50;99.90;;;;;;5080594;28;20204;-65
2023/12/07 07:06:47;;;;;;;16.88;12.45;;;3.50;99.90;;;;;;5087988;28;20204;-65
2023/12/07 07:09:15;;;;;;;16.65;12.45;;;3.50;99.90;;;;;;5090827;28;20209;-64
2023/12/07 07:11:43;;;;;;;15.55;12.30;;;3.50;99.90;;;;;;5090448;28;20266;-62
2023/12/07 07:14:10;;;;;;;17.15;12.27;;;3.50;99.90;;;;;;5089468;28;20201;-64
2023/12/07 07:16:37;;;;;;;19.00;13.13;;;3.50;99.90;;;;;;5083206;28;20663;-64
2023/12/07 07:19:04;;;;;;;15.95;11.73;;;3.50;99.90;;;;;;5081968;28;20205;-64
2023/12/07 07:21:32;;;;;;;18.50;13.65;;;3.60;99.90;;;;;;5081208;28;20590;-63
2023/12/07 07:23:59;;;;;;;17.52;12.82;;;3.60;99.90;;;;;;5080318;28;20300;-64
2023/12/07 07:26:25;;;;;;;16.23;12.80;;;3.60;99.90;;;;;;5083098;28;20272;-64
2023/12/07 07:28:53;;;;;;;15.57;12.30;;;3.60;99.90;;;;;;5082839;28;20278;-64
2023/12/07 07:31:20;;;;;;;17.50;13.73;;;3.60;99.90;;;;;;5080558;28;20217;-64
2023/12/07 07:33:47;;;;;;;15.23;12.20;;;3.60;99.90;;;;;;5084098;28;20287;-64
2023/12/07 07:36:14;;;;;;;20.48;13.82;;;3.60;99.90;;;;;;5082365;28;20201;-64
2023/12/07 07:38:43;;;;;;;17.77;12.88;;;3.60;99.90;;;;;;5081376;28;20196;-64
2023/12/07 07:41:10;;;;;;;16.30;12.95;;;3.60;99.90;;;;;;5083564;28;20197;-64
2023/12/07 07:43:37;;;;;;;16.20;12.10;;;3.60;99.90;;;;;;5086046;28;20265;-64
2023/12/07 07:46:04;;;;;;;18.98;13.68;;;3.60;99.90;;;;;;5083045;28;20207;-63
2023/12/07 07:48:31;;;;;;;23.52;14.73;;;3.60;99.90;;;;;;5079740;28;20204;-64
2023/12/07 07:50:58;;;;;;;21.05;13.32;;;3.60;99.90;;;;;;5076546;28;20197;-65
2023/12/07 07:53:25;;;;;;;15.60;12.15;;;3.70;99.90;;;;;;5076366;28;20229;-63
2023/12/07 07:55:53;;;;;;;16.63;12.50;;;3.70;99.90;;;;;;5076373;28;20207;-65
2023/12/07 07:58:20;;;;;;;16.67;11.90;;;3.70;99.90;;;;;;5077639;28;20211;-64
2023/12/07 08:00:47;;;;;;;18.38;13.68;;;3.70;99.90;;;;;;5076421;28;20265;-64
2023/12/07 08:03:14;;;;;;;17.67;12.75;;;3.70;99.90;;;;;;5075471;28;20213;-64
2023/12/07 08:05:40;;;;;;;18.90;13.90;;;3.70;99.90;;;;;;5074262;28;20201;-65
2023/12/07 08:08:08;;;;;;;18.08;12.90;;;3.70;99.90;;;;;;5074395;28;20208;-64
2023/12/07 08:10:35;;;;;;;18.80;13.60;;;3.70;99.90;;;;;;5074047;28;20299;-65
2023/12/07 08:13:03;;;;;;;17.70;12.85;;;3.80;99.90;;;;;;5074068;28;20225;-63
2023/12/07 08:15:30;;;;;;;20.50;12.35;;;3.80;99.90;;;;;;5074406;28;20675;-62
2023/12/07 08:17:58;;;;;;;20.90;14.35;;;3.80;99.90;;;;;;5075329;28;20196;-64
2023/12/07 08:20:24;;;;;;;18.38;13.10;;;3.80;99.90;;;;;;5075949;28;20254;-64
2023/12/07 08:22:51;;;;;;;15.65;12.70;;;3.90;99.90;;;;;;5077203;28;20217;-64
2023/12/07 08:25:18;;;;;;;18.83;13.73;;;3.90;99.90;;;;;;5077554;28;20209;-65
2023/12/07 08:27:45;;;;;;;17.27;12.68;;;3.90;99.90;;;;;;5079152;28;20569;-65
2023/12/07 08:30:14;;;;;;;18.75;13.35;;;3.90;99.90;;;;;;5081216;28;20205;-64
2023/12/07 08:32:40;;;;;;;17.33;13.43;;;3.90;99.90;;;;;;5082536;28;20235;-65
2023/12/07 08:35:08;;;;;;;19.40;13.00;;;4.00;99.90;;;;;;5080795;28;20200;-65
2023/12/07 08:37:35;;;;;;;19.27;14.65;;;4.00;99.90;;;;;;5077421;28;20205;-66
2023/12/07 08:40:01;;;;;;;16.50;12.77;;;4.10;99.90;;;;;;5075157;28;20226;-65
2023/12/07 08:42:30;;;;;;;18.80;13.85;;;4.10;99.90;;;;;;5078391;28;20270;-65
2023/12/07 08:44:57;;;;;;;20.35;13.38;;;4.10;99.90;;;;;;5081357;28;20236;-66
2023/12/07 08:47:27;;;;;;;16.33;13.18;;;4.10;99.90;;;;;;5077207;28;20205;-65
2023/12/07 08:49:54;;;;;;;19.77;14.52;;;4.10;99.90;;;;;;5081552;28;20189;-65
2023/12/07 08:52:21;;;;;;;18.00;12.80;;;4.10;99.90;;;;;;5080697;28;20221;-64
2023/12/07 08:54:47;;;;;;;16.67;13.63;;;4.10;99.90;;;;;;5080579;28;20666;-66
2023/12/07 08:57:14;;;;;;;19.02;13.52;;;4.10;99.90;;;;;;5082195;28;20204;-66
2023/12/07 08:59:41;;;;;;;18.98;13.63;;;4.20;99.90;;;;;;5084635;28;20219;-66
2023/12/07 09:02:07;;;;;;;17.77;13.20;;;4.20;99.90;;;;;;5086160;28;20216;-64
2023/12/07 09:04:35;;;;;;;17.65;13.38;;;4.20;99.90;;;;;;5082208;28;20205;-65
2023/12/07 09:07:02;;;;;;;16.98;14.02;;;4.20;99.90;;;;;;5083268;28;20217;-64
2023/12/07 09:09:29;;;;;;;19.67;14.65;;;4.20;99.90;;;;;;5083936;28;20197;-65
2023/12/07 09:11:56;;;;;;;15.95;13.52;;;4.30;99.90;;;;;;5084141;28;20225;-66
2023/12/07 09:14:23;;;;;;;18.30;12.85;;;4.20;99.90;;;;;;5084428;28;20209;-65
2023/12/07 09:16:49;;;;;;;16.83;13.25;;;4.20;99.90;;;;;;5084772;28;20201;-65
2023/12/07 09:19:16;;;;;;;18.15;14.30;;;4.20;99.90;;;;;;5082634;28;20583;-66
2023/12/07 09:21:45;;;;;;;17.90;13.07;;;4.20;99.90;;;;;;5082663;28;20217;-65
2023/12/07 09:24:11;;;;;;;17.85;12.77;;;4.20;99.90;;;;;;5084337;28;20690;-65
2023/12/07 09:26:38;;;;;;;16.70;12.95;;;4.20;99.90;;;;;;5083515;28;20208;-65
2023/12/07 09:29:05;;;;;;;20.52;14.35;;;4.20;99.90;;;;;;5083812;28;20209;-65
2023/12/07 09:31:32;;;;;;;20.45;13.63;;;4.20;99.90;;;;;;5082855;28;20319;-65
2023/12/07 09:33:59;;;;;;;20.52;15.30;;;4.20;99.90;;;;;;5081069;28;20231;-65
2023/12/07 09:36:27;;;;;;;19.00;15.10;;;4.20;99.90;;;;;;5080012;28;20201;-65
2023/12/07 09:38:55;;;;;;;18.58;13.48;;;4.20;99.90;;;;;;5080197;28;20197;-65
2023/12/07 09:41:24;;;;;;;21.63;14.52;;;4.20;99.90;;;;;;5080714;28;20216;-66
2023/12/07 09:43:51;;;;;;;19.35;15.60;;;4.20;99.90;;;;;;5082523;28;20569;-66
2023/12/07 09:46:19;;;;;;;20.17;14.55;;;4.20;99.90;;;;;;5081035;28;20205;-65
2023/12/07 09:48:47;;;;;;;18.13;14.75;;;4.20;99.90;;;;;;5080659;28;20646;-64
2023/12/07 09:51:16;;;;;;;20.50;14.18;;;4.20;99.90;;;;;;5080567;28;20283;-65
2023/12/07 09:53:43;;;;;;;17.08;14.30;;;4.20;99.90;;;;;;5079916;28;20308;-65
2023/12/07 09:56:11;;;;;;;19.13;15.23;;;4.30;99.90;;;;;;5080720;28;20207;-65
2023/12/07 09:58:42;;;;;;;23.45;17.30;;;4.30;99.90;;;;;;5080223;28;20205;-66
2023/12/07 10:01:08;;;;;;;21.95;15.73;;;4.30;99.90;;;;;;5080032;28;20193;-66
2023/12/07 10:03:35;;;;;;;22.25;17.27;;;4.30;99.90;;;;;;5079016;28;20254;-65
2023/12/07 10:06:02;;;;;;;21.63;15.63;;;4.40;99.90;;;;;;5076646;28;20197;-65
2023/12/07 10:08:29;;;;;;;20.40;14.90;;;4.40;99.90;;;;;;5077937;28;20201;-65
2023/12/07 10:11:07;;;;;;;22.40;15.00;;;4.50;99.90;;;;;;5077384;28;20216;-65
2023/12/07 10:13:36;;;;;;;18.92;15.48;;;4.50;99.90;;;;;;5078869;28;20221;-65
2023/12/07 10:16:11;;;;;;;19.13;14.85;;;4.50;99.90;;;;;;5078310;28;20205;-65
2023/12/07 10:18:40;;;;;;;20.85;14.68;;;4.50;99.90;;;;;;5078919;28;20193;-65
2023/12/07 10:21:08;;;;;;;23.77;14.65;;;4.50;99.90;;;;;;5079684;28;20243;-66
2023/12/07 10:23:35;;;;;;;24.42;15.15;;;4.50;99.90;;;;;;5082533;28;20205;-63
2023/12/07 10:26:02;;;;;;;19.00;13.90;;;4.50;99.90;;;;;;5087208;28;20211;-65
2023/12/07 10:28:29;;;;;;;20.95;14.63;;;4.50;99.90;;;;;;5086226;28;20211;-65
2023/12/07 10:30:58;;;;;;;18.77;15.52;;;4.50;99.90;;;;;;5081922;28;20201;-65
2023/12/07 10:33:26;;;;;;;22.70;16.08;;;4.50;99.90;;;;;;5077581;28;20247;-64
2023/12/07 10:35:53;;;;;;;19.48;14.93;;;4.50;99.90;;;;;;5077678;28;20220;-65
2023/12/07 10:38:19;;;;;;;21.63;16.13;;;4.50;99.90;;;;;;5078336;28;20201;-64
2023/12/07 10:40:47;;;;;;;20.13;15.32;;;4.40;99.90;;;;;;5078736;28;20212;-64
2023/12/07 10:43:20;;;;;;;21.60;16.38;;;4.50;99.90;;;;;;5078694;28;20213;-64
2023/12/07 10:45:48;;;;;;;21.88;15.00;;;4.50;99.90;;;;;;5077401;28;20185;-65
2023/12/07 10:48:17;;;;;;;16.98;14.23;;;4.50;99.90;;;;;;5079072;28;20201;-63
2023/12/07 10:50:47;;;;;;;22.33;14.93;;;4.60;99.90;;;;;;5078931;28;20204;-64
2023/12/07 10:53:21;;;;;;;21.88;14.60;;;4.60;99.90;;;;;;5075210;28;20235;-65
2023/12/07 10:55:54;;;;;;;21.98;14.55;;;4.70;99.90;;;;;;5076064;28;20200;-65
2023/12/07 10:58:25;;;;;;;19.05;15.20;;;4.70;99.90;;;;;;5076367;28;20193;-65
2023/12/07 11:00:53;;;;;;;18.05;14.15;;;4.80;99.90;;;;;;5074519;28;20196;-65
2023/12/07 11:03:22;;;;;;;21.25;15.75;;;4.80;99.90;;;;;;5074967;28;20217;-63
2023/12/07 11:05:49;;;;;;;19.95;14.07;;;4.90;99.90;;;;;;5075790;28;20216;-64
2023/12/07 11:08:22;;;;;;;18.52;14.60;;;4.90;99.90;;;;;;5075022;28;20197;-64
2023/12/07 11:10:55;;;;;;;19.13;15.15;;;5.00;99.90;;;;;;5074547;28;20213;-65
2023/12/07 11:13:27;;;;;;;18.95;14.63;;;5.00;99.90;;;;;;5074504;28;20236;-66
2023/12/07 11:15:54;;;;;;;16.75;13.43;;;5.00;99.90;;;;;;5074732;28;20194;-65
2023/12/07 11:18:22;;;;;;;16.33;13.75;;;5.00;99.90;;;;;;5075169;28;20546;-65
2023/12/07 11:20:49;;;;;;;19.35;14.60;;;5.00;99.90;;;;;;5073453;28;20201;-65
2023/12/07 11:23:17;;;;;;;19.80;13.88;;;5.00;99.90;;;;;;5074143;28;20217;-65
2023/12/07 11:25:44;;;;;;;19.50;13.55;;;5.00;99.90;;;;;;5074227;28;20208;-63
2023/12/07 11:28:12;;;;;;;19.10;14.80;;;5.00;99.90;;;;;;5074310;28;20201;-65
2023/12/07 11:30:42;;;;;;;22.88;16.05;;;5.10;99.90;;;;;;5076279;28;20200;-66
2023/12/07 11:33:11;;;;;;;21.95;14.20;;;5.10;99.90;;;;;;5076726;28;20658;-66
2023/12/07 11:36:07;;;;;;;21.02;14.45;;;5.20;99.90;;;;;;5075647;28;20234;-66
2023/12/07 11:38:35;;;;;;;22.50;15.52;;;5.30;99.90;;;;;;5074452;28;20216;-67
2023/12/07 11:41:03;;;;;;;19.52;15.00;;;5.30;99.90;;;;;;5076001;28;20215;-66
2023/12/07 11:43:45;;;;;;;23.65;15.20;;;5.20;99.90;;;;;;5075281;28;20204;-63
2023/12/07 11:46:14;;;;;;;86.63;46.42;;;5.30;99.90;;;;;;5074369;28;20662;-65
2023/12/07 11:48:40;;;;;;;109.28;58.95;;;5.30;99.90;;;;;;5075800;28;20687;-66
2023/12/07 11:51:10;;;;;;;104.60;58.97;;;5.30;99.90;;;;;;5082001;28;20200;-65
2023/12/07 11:53:38;;;;;;;98.97;54.67;;;5.50;99.90;;;;;;5081116;28;20221;-65
2023/12/07 11:56:07;;;;;;;48.13;29.55;;;5.50;99.90;;;;;;5083829;28;20599;-65
2023/12/07 11:58:35;;;;;;;24.98;17.27;;;5.60;99.90;;;;;;5084064;28;20201;-65
2023/12/07 12:01:02;;;;;;;17.25;14.63;;;5.70;99.90;;;;;;5084319;28;20200;-64
2023/12/07 12:03:32;;;;;;;18.25;13.90;;;5.70;99.90;;;;;;5087241;28;20239;-64
2023/12/07 12:05:58;;;;;;;17.23;14.00;;;5.70;99.90;;;;;;5083939;28;20276;-64
2023/12/07 12:08:27;;;;;;;21.17;16.05;;;5.60;99.90;;;;;;5085776;28;20200;-64
2023/12/07 12:10:57;;;;;;;21.17;14.80;;;5.50;99.90;;;;;;5091651;28;20209;-65
2023/12/07 12:13:28;;;;;;;21.05;15.25;;;5.50;99.90;;;;;;5088466;28;20247;-65
2023/12/07 12:15:55;;;;;;;22.08;15.82;;;5.40;99.90;;;;;;5085895;28;20189;-66
2023/12/07 12:18:23;;;;;;;20.38;14.38;;;5.40;99.90;;;;;;5080491;28;20577;-65
2023/12/07 12:20:52;;;;;;;18.70;14.65;;;5.40;99.90;;;;;;5077190;28;20208;-65
2023/12/07 12:23:19;;;;;;;21.80;15.55;;;5.40;99.90;;;;;;5075563;28;20221;-66
2023/12/07 12:25:48;;;;;;;19.20;14.48;;;5.40;99.90;;;;;;5075863;28;20201;-64
2023/12/07 12:28:18;;;;;;;25.55;15.95;;;5.40;99.90;;;;;;5075187;28;20197;-65
2023/12/07 12:30:46;;;;;;;24.33;15.55;;;5.50;99.90;;;;;;5075684;28;20189;-66
2023/12/07 12:33:14;;;;;;;20.48;15.10;;;5.50;99.90;;;;;;5077372;28;20721;-65
2023/12/07 12:35:40;;;;;;;21.10;14.98;;;5.50;99.90;;;;;;5080484;28;20201;-66
2023/12/07 12:38:11;;;;;;;20.10;15.50;;;5.50;99.90;;;;;;5079506;28;20686;-66
2023/12/07 12:40:38;;;;;;;20.52;15.63;;;5.60;99.90;;;;;;5080131;28;20185;-65